createdAt,value
2023-07-29T00:01:27.784Z,1.40
2023-07-29T00:03:55.787Z,1.00
2023-07-29T00:06:23.736Z,1.10
2023-07-29T00:08:53.139Z,1.33
2023-07-29T00:11:21.219Z,1.00
2023-07-29T00:13:51.158Z,1.30
2023-07-29T00:16:19.285Z,1.00
2023-07-29T00:18:47.297Z,1.37
2023-07-29T00:21:15.227Z,0.90
2023-07-29T00:23:43.158Z,1.10
2023-07-29T00:26:12.406Z,1.20
2023-07-29T00:28:40.364Z,1.15
2023-07-29T00:31:08.277Z,1.05
2023-07-29T00:33:36.487Z,1.00
2023-07-29T00:36:04.709Z,1.10
2023-07-29T00:38:32.613Z,1.10
2023-07-29T00:41:01.505Z,1.25
2023-07-29T00:43:30.790Z,1.05
2023-07-29T00:45:59.021Z,1.05
2023-07-29T00:48:27.980Z,0.90
2023-07-29T00:53:24.264Z,1.10
2023-07-29T00:55:52.207Z,1.30
2023-07-29T00:58:20.414Z,1.02
2023-07-29T01:00:50.920Z,1.20
2023-07-29T01:03:19.493Z,1.20
2023-07-29T01:05:58.794Z,1.40
2023-07-29T01:08:35.485Z,1.15
2023-07-29T01:11:10.667Z,1.20
2023-07-29T01:13:46.684Z,1.33
2023-07-29T01:16:21.400Z,1.10
2023-07-29T01:18:50.648Z,1.27
2023-07-29T01:21:19.436Z,1.27
2023-07-29T01:23:48.774Z,1.10
2023-07-29T01:26:16.629Z,1.20
2023-07-29T01:28:45.250Z,0.95
2023-07-29T01:31:25.588Z,1.17
2023-07-29T01:33:59.897Z,1.35
2023-07-29T01:36:31.530Z,1.20
2023-07-29T01:39:02.574Z,1.30
2023-07-29T01:41:31.274Z,1.10
2023-07-29T01:43:59.925Z,1.25
2023-07-29T01:48:56.021Z,0.90
2023-07-29T01:51:23.939Z,1.00
2023-07-29T01:53:52.060Z,1.10
2023-07-29T01:56:21.517Z,1.20
2023-07-29T01:58:55.838Z,1.38
2023-07-29T02:01:23.969Z,1.40
2023-07-29T02:03:56.235Z,1.20
2023-07-29T02:06:25.323Z,1.50
2023-07-29T02:08:53.397Z,1.50
2023-07-29T02:11:28.324Z,1.30
2023-07-29T02:13:57.181Z,1.77
2023-07-29T02:16:25.306Z,1.80
2023-07-29T02:18:56.160Z,1.97
2023-07-29T02:21:24.607Z,1.95
2023-07-29T02:23:52.568Z,1.90
2023-07-29T02:26:22.138Z,2.27
2023-07-29T02:28:50.037Z,1.80
2023-07-29T02:31:19.080Z,1.70
2023-07-29T02:33:47.713Z,1.73
2023-07-29T02:36:21.541Z,2.20
2023-07-29T02:38:49.756Z,1.98
2023-07-29T02:41:17.894Z,1.88
2023-07-29T02:43:50.876Z,2.30
2023-07-29T02:46:18.958Z,2.25
2023-07-29T02:48:47.030Z,1.90
2023-07-29T02:51:14.960Z,2.20
2023-07-29T02:53:42.872Z,2.38
2023-07-29T02:56:11.365Z,2.20
2023-07-29T02:58:39.597Z,2.50
2023-07-29T03:01:10.318Z,2.03
2023-07-29T03:03:39.333Z,2.40
2023-07-29T03:06:09.216Z,2.53
2023-07-29T03:08:37.864Z,2.10
2023-07-29T03:11:08.431Z,2.03
2023-07-29T03:13:36.482Z,1.75
2023-07-29T03:16:08.468Z,1.98
2023-07-29T03:18:38.347Z,1.90
2023-07-29T03:21:06.832Z,2.05
2023-07-29T03:23:35.823Z,2.03
2023-07-29T03:26:11.442Z,2.53
2023-07-29T03:28:41.825Z,2.30
2023-07-29T03:31:10.206Z,2.63
2023-07-29T03:33:40.034Z,2.03
2023-07-29T03:36:08.165Z,1.80
2023-07-29T03:38:36.575Z,2.13
2023-07-29T03:41:04.978Z,2.25
2023-07-29T03:43:33.054Z,2.20
2023-07-29T03:46:03.235Z,2.45
2023-07-29T03:48:32.335Z,1.58
2023-07-29T03:51:01.846Z,2.42
2023-07-29T03:53:29.768Z,1.85
2023-07-29T03:55:57.724Z,2.40
2023-07-29T03:58:25.588Z,1.92
2023-07-29T04:00:53.505Z,2.10
2023-07-29T04:03:21.711Z,2.10
2023-07-29T04:08:21.479Z,1.90
2023-07-29T04:10:50.409Z,2.20
2023-07-29T04:13:18.454Z,1.48
2023-07-29T04:15:46.853Z,1.75
2023-07-29T04:18:14.772Z,1.85
2023-07-29T04:20:44.004Z,1.38
2023-07-29T04:23:11.913Z,1.70
2023-07-29T04:25:41.344Z,1.50
2023-07-29T04:28:09.269Z,1.50
2023-07-29T04:30:37.162Z,1.63
2023-07-29T04:33:05.515Z,1.65
2023-07-29T04:35:33.444Z,1.63
2023-07-29T04:38:01.324Z,1.60
2023-07-29T04:40:29.222Z,1.85
2023-07-29T04:42:58.576Z,1.63
2023-07-29T04:45:30.550Z,1.73
2023-07-29T04:47:58.698Z,1.73
2023-07-29T04:50:26.643Z,2.10
2023-07-29T04:52:54.982Z,1.70
2023-07-29T04:55:22.837Z,1.80
2023-07-29T04:57:50.710Z,1.77
2023-07-29T05:00:20.290Z,2.13
2023-07-29T05:02:48.222Z,1.90
2023-07-29T05:05:16.124Z,2.20
2023-07-29T05:07:44.465Z,1.43
2023-07-29T05:10:12.517Z,1.73
2023-07-29T05:12:40.393Z,1.73
2023-07-29T05:15:09.766Z,1.70
2023-07-29T05:17:39.288Z,2.05
2023-07-29T05:20:08.984Z,2.15
2023-07-29T05:22:36.926Z,1.80
2023-07-29T05:25:05.409Z,1.90
2023-07-29T05:27:33.329Z,1.80
2023-07-29T05:30:01.198Z,1.58
2023-07-29T05:32:29.145Z,1.83
2023-07-29T05:34:58.435Z,2.13
2023-07-29T05:37:26.338Z,1.92
2023-07-29T05:39:54.221Z,1.90
2023-07-29T05:42:22.119Z,2.00
2023-07-29T05:44:50.038Z,1.85
2023-07-29T05:47:17.961Z,2.10
2023-07-29T05:49:45.934Z,1.60
2023-07-29T05:52:15.428Z,1.98
2023-07-29T05:54:43.771Z,2.17
2023-07-29T05:57:13.251Z,2.25
2023-07-29T05:59:41.192Z,2.20
2023-07-29T06:02:09.830Z,1.80
2023-07-29T06:04:37.978Z,2.08
2023-07-29T06:07:06.601Z,1.73
2023-07-29T06:09:35.954Z,1.83
2023-07-29T06:12:04.695Z,2.10
2023-07-29T06:14:32.611Z,1.80
2023-07-29T06:17:00.564Z,1.65
2023-07-29T06:19:28.478Z,1.60
2023-07-29T06:21:57.497Z,1.67
2023-07-29T06:24:25.324Z,2.00
2023-07-29T06:26:54.849Z,1.90
2023-07-29T06:29:22.702Z,1.70
2023-07-29T06:31:52.396Z,1.80
2023-07-29T06:34:20.470Z,1.98
2023-07-29T06:36:48.357Z,1.42
2023-07-29T06:39:16.193Z,1.60
2023-07-29T06:41:44.071Z,1.67
2023-07-29T06:44:14.639Z,1.70
2023-07-29T06:46:42.622Z,1.67
2023-07-29T06:49:10.638Z,1.50
2023-07-29T06:51:38.573Z,1.40
2023-07-29T06:54:06.437Z,1.63
2023-07-29T06:56:34.491Z,1.50
2023-07-29T06:59:02.532Z,1.60
2023-07-29T07:01:31.824Z,1.60
2023-07-29T07:03:59.839Z,1.50
2023-07-29T07:06:27.811Z,1.70
2023-07-29T07:08:55.675Z,1.50
2023-07-29T07:11:23.574Z,1.60
2023-07-29T07:13:51.413Z,1.75
2023-07-29T07:16:19.274Z,1.63
2023-07-29T07:18:48.577Z,1.40
2023-07-29T07:21:16.454Z,1.92
2023-07-29T07:23:44.318Z,1.48
2023-07-29T07:26:12.236Z,1.33
2023-07-29T07:28:40.090Z,1.33
2023-07-29T07:31:10.806Z,1.20
2023-07-29T07:33:38.969Z,1.38
2023-07-29T07:36:08.326Z,1.38
2023-07-29T07:38:36.293Z,1.50
2023-07-29T07:41:04.138Z,1.20
2023-07-29T07:43:32.691Z,1.30
2023-07-29T07:46:01.647Z,1.30
2023-07-29T07:48:29.599Z,1.30
2023-07-29T07:50:57.649Z,1.42
2023-07-29T07:53:27.712Z,1.43
2023-07-29T07:55:55.627Z,1.00
2023-07-29T07:58:23.454Z,1.25
2023-07-29T08:00:51.437Z,1.45
2023-07-29T08:03:19.996Z,1.23
2023-07-29T08:05:47.962Z,1.20
2023-07-29T08:08:15.809Z,1.20
2023-07-29T08:10:45.026Z,1.10
2023-07-29T08:13:12.888Z,1.10
2023-07-29T08:15:42.150Z,1.30
2023-07-29T08:18:10.054Z,1.25
2023-07-29T08:20:37.912Z,1.17
2023-07-29T08:23:05.833Z,1.30
2023-07-29T08:25:33.695Z,1.10
2023-07-29T08:28:02.959Z,1.23
2023-07-29T08:30:30.863Z,1.20
2023-07-29T08:32:58.966Z,1.13
2023-07-29T08:35:26.821Z,1.10
2023-07-29T08:37:54.702Z,1.27
2023-07-29T08:40:29.512Z,1.30
2023-07-29T08:43:00.246Z,1.05
2023-07-29T08:45:30.069Z,1.10
2023-07-29T08:48:00.805Z,1.10
2023-07-29T08:50:28.896Z,1.30
2023-07-29T08:52:57.729Z,1.17
2023-07-29T08:57:54.101Z,1.33
2023-07-29T09:00:22.677Z,1.08
2023-07-29T09:02:52.017Z,1.25
2023-07-29T09:05:20.566Z,1.27
2023-07-29T09:07:49.884Z,1.20
2023-07-29T09:10:17.790Z,1.40
2023-07-29T09:12:45.702Z,1.52
2023-07-29T09:15:13.585Z,1.00
2023-07-29T09:17:42.903Z,1.48
2023-07-29T09:20:13.642Z,2.70
2023-07-29T09:22:41.542Z,1.30
2023-07-29T09:25:10.313Z,1.30
2023-07-29T09:27:40.690Z,1.20
2023-07-29T09:30:17.243Z,1.10
2023-07-29T09:32:45.248Z,1.05
2023-07-29T09:35:14.897Z,1.38
2023-07-29T09:37:42.890Z,1.38
2023-07-29T09:40:16.141Z,1.20
2023-07-29T09:42:50.785Z,1.35
2023-07-29T09:45:23.210Z,1.60
2023-07-29T09:47:51.863Z,1.17
2023-07-29T09:50:25.078Z,1.40
2023-07-29T09:52:53.772Z,1.30
2023-07-29T09:55:23.365Z,1.42
2023-07-29T09:57:55.776Z,1.30
2023-07-29T10:00:23.720Z,1.45
2023-07-29T10:02:52.090Z,1.20
2023-07-29T10:05:24.088Z,1.35
2023-07-29T10:07:52.458Z,1.50
2023-07-29T10:10:20.364Z,1.20
2023-07-29T10:12:48.711Z,1.50
2023-07-29T10:15:16.637Z,1.30
2023-07-29T10:17:45.631Z,1.23
2023-07-29T10:20:14.913Z,1.50
2023-07-29T10:22:48.153Z,1.35
2023-07-29T10:25:20.660Z,1.23
2023-07-29T10:27:51.359Z,1.40
2023-07-29T10:30:19.416Z,1.40
2023-07-29T10:32:48.250Z,1.33
2023-07-29T10:37:46.624Z,1.27
2023-07-29T10:40:14.660Z,1.58
2023-07-29T10:43:04.082Z,1.40
2023-07-29T10:45:40.143Z,1.45
2023-07-29T10:48:09.794Z,1.42
2023-07-29T10:50:37.719Z,1.48
2023-07-29T10:53:07.127Z,1.40
2023-07-29T10:55:37.714Z,1.25
2023-07-29T10:58:15.373Z,1.50
2023-07-29T11:00:45.213Z,1.70
2023-07-29T11:03:15.723Z,1.30
2023-07-29T11:05:49.365Z,1.30
2023-07-29T11:08:24.134Z,1.80
2023-07-29T11:11:04.583Z,1.58
2023-07-29T11:13:33.492Z,1.88
2023-07-29T11:18:32.435Z,1.30
2023-07-29T11:21:00.771Z,1.20
2023-07-29T11:23:34.426Z,1.50
2023-07-29T11:26:02.656Z,1.48
2023-07-29T11:28:31.144Z,1.50
2023-07-29T11:30:59.714Z,1.35
2023-07-29T11:33:29.438Z,1.30
2023-07-29T11:35:57.956Z,1.60
2023-07-29T11:38:25.864Z,1.60
2023-07-29T11:41:04.242Z,1.30
2023-07-29T11:43:32.144Z,1.60
2023-07-29T11:46:03.256Z,1.60
2023-07-29T11:48:34.599Z,1.60
2023-07-29T11:51:04.536Z,1.58
2023-07-29T11:53:33.000Z,1.52
2023-07-29T11:56:02.451Z,1.85
2023-07-29T11:58:30.549Z,1.20
2023-07-29T12:00:58.469Z,1.40
2023-07-29T12:03:28.158Z,1.40
2023-07-29T12:05:56.430Z,1.63
2023-07-29T12:08:24.628Z,1.63
2023-07-29T12:10:52.627Z,1.67
2023-07-29T12:13:26.103Z,1.30
2023-07-29T12:15:54.994Z,1.40
2023-07-29T12:18:32.118Z,1.50
2023-07-29T12:21:00.209Z,1.50
2023-07-29T12:23:28.630Z,1.37
2023-07-29T12:25:59.476Z,1.70
2023-07-29T12:28:29.158Z,1.48
2023-07-29T12:30:57.822Z,1.40
2023-07-29T12:33:32.692Z,1.50
2023-07-29T12:36:00.879Z,1.55
2023-07-29T12:38:29.500Z,1.43
2023-07-29T12:40:57.652Z,1.63
2023-07-29T12:43:26.870Z,1.52
2023-07-29T12:45:56.162Z,1.70
2023-07-29T12:48:24.025Z,1.80
2023-07-29T12:50:52.804Z,1.80
2023-07-29T12:53:20.757Z,1.60
2023-07-29T12:55:48.674Z,1.80
2023-07-29T12:58:16.532Z,1.77
2023-07-29T13:00:44.442Z,1.80
2023-07-29T13:03:13.814Z,1.90
2023-07-29T13:05:41.915Z,2.00
2023-07-29T13:08:14.304Z,1.70
2023-07-29T13:10:42.201Z,1.75
2023-07-29T13:13:10.045Z,1.92
2023-07-29T13:15:38.132Z,1.95
2023-07-29T13:18:06.164Z,1.70
2023-07-29T13:20:35.861Z,1.50
2023-07-29T13:23:03.701Z,1.58
2023-07-29T13:25:31.991Z,1.50
2023-07-29T13:28:00.089Z,1.98
2023-07-29T13:30:28.546Z,1.87
2023-07-29T13:32:56.485Z,5.43
2023-07-29T13:35:24.494Z,1.33
2023-07-29T13:37:53.725Z,1.77
2023-07-29T13:40:21.649Z,1.45
2023-07-29T13:42:49.532Z,1.58
2023-07-29T13:45:17.532Z,1.60
2023-07-29T13:47:45.551Z,1.70
2023-07-29T13:50:13.480Z,4.55
2023-07-29T13:52:41.354Z,1.77
2023-07-29T13:55:12.526Z,1.58
2023-07-29T13:57:40.943Z,3.10
2023-07-29T14:00:10.276Z,1.92
2023-07-29T14:02:41.206Z,1.80
2023-07-29T14:05:10.011Z,2.13
2023-07-29T14:07:37.998Z,2.05
2023-07-29T14:10:06.519Z,1.48
2023-07-29T14:12:35.893Z,1.98
2023-07-29T14:15:03.854Z,2.17
2023-07-29T14:17:31.781Z,2.97
2023-07-29T14:19:59.720Z,4.85
2023-07-29T14:22:27.606Z,2.70
2023-07-29T14:24:56.004Z,3.65
2023-07-29T14:27:24.631Z,4.13
2023-07-29T14:29:53.893Z,2.25
2023-07-29T14:32:23.688Z,2.42
2023-07-29T14:34:51.890Z,2.38
2023-07-29T14:37:19.745Z,1.90
2023-07-29T14:39:47.637Z,1.80
2023-07-29T14:42:15.927Z,2.08
2023-07-29T14:44:44.749Z,1.90
2023-07-29T14:47:13.997Z,1.83
2023-07-29T14:49:41.928Z,1.75
2023-07-29T14:52:10.076Z,1.50
2023-07-29T14:54:37.971Z,1.77
2023-07-29T14:57:08.376Z,1.65
2023-07-29T14:59:36.259Z,1.73
2023-07-29T15:02:04.242Z,1.60
2023-07-29T15:04:33.519Z,2.50
2023-07-29T15:07:01.479Z,2.03
2023-07-29T15:09:29.382Z,1.88
2023-07-29T15:11:59.338Z,2.03
2023-07-29T15:14:27.474Z,1.98
2023-07-29T15:16:55.342Z,2.22
2023-07-29T15:19:23.261Z,1.67
2023-07-29T15:21:52.481Z,2.20
2023-07-29T15:24:20.355Z,1.73
2023-07-29T15:26:48.199Z,2.20
2023-07-29T15:29:16.071Z,1.80
2023-07-29T15:31:44.187Z,2.08
2023-07-29T15:34:12.048Z,1.83
2023-07-29T15:36:39.927Z,1.83
2023-07-29T15:39:09.722Z,2.00
2023-07-29T15:41:37.684Z,1.98
2023-07-29T15:44:05.911Z,1.83
2023-07-29T15:46:34.002Z,1.70
2023-07-29T15:49:01.924Z,2.00
2023-07-29T15:51:29.869Z,2.00
2023-07-29T15:53:57.735Z,1.88
2023-07-29T15:56:29.166Z,1.88
2023-07-29T15:58:57.064Z,1.73
2023-07-29T16:01:25.256Z,1.80
2023-07-29T16:03:53.194Z,1.88
2023-07-29T16:06:21.172Z,2.17
2023-07-29T16:08:49.091Z,2.00
2023-07-29T16:11:16.961Z,1.80
2023-07-29T16:13:46.202Z,1.80
2023-07-29T16:16:14.078Z,1.80
2023-07-29T16:18:42.008Z,2.17
2023-07-29T16:21:09.873Z,1.95
2023-07-29T16:23:38.555Z,2.03
2023-07-29T16:26:06.428Z,1.77
2023-07-29T16:28:34.520Z,1.83
2023-07-29T16:31:04.868Z,2.00
2023-07-29T16:33:32.878Z,2.00
2023-07-29T16:36:00.740Z,2.10
2023-07-29T16:38:28.632Z,1.90
2023-07-29T16:41:08.735Z,2.47
2023-07-29T16:43:39.021Z,3.22
2023-07-29T16:46:08.390Z,1.80
2023-07-29T16:48:36.609Z,2.08
2023-07-29T16:51:04.878Z,2.30
2023-07-29T16:53:32.797Z,1.80
2023-07-29T16:56:01.281Z,1.90
2023-07-29T16:58:29.263Z,2.10
2023-07-29T17:00:57.116Z,1.98
2023-07-29T17:03:26.388Z,2.45
2023-07-29T17:05:56.968Z,2.20
2023-07-29T17:08:24.862Z,1.80
2023-07-29T17:10:52.767Z,1.77
2023-07-29T17:13:20.625Z,2.17
2023-07-29T17:15:48.822Z,2.03
2023-07-29T17:18:16.913Z,1.70
2023-07-29T17:20:46.147Z,1.80
2023-07-29T17:23:14.001Z,1.25
2023-07-29T17:25:41.895Z,2.17
2023-07-29T17:28:09.895Z,1.55
2023-07-29T17:30:37.783Z,1.70
2023-07-29T17:33:05.916Z,1.80
2023-07-29T17:35:33.821Z,1.38
2023-07-29T17:38:03.711Z,1.88
2023-07-29T17:40:31.608Z,1.80
2023-07-29T17:42:59.464Z,1.70
2023-07-29T17:45:27.326Z,1.55
2023-07-29T17:47:55.421Z,1.67
2023-07-29T17:50:23.872Z,1.50
2023-07-29T17:52:51.957Z,2.00
2023-07-29T17:55:21.206Z,1.42
2023-07-29T17:57:49.111Z,1.40
2023-07-29T18:00:17.123Z,1.77
2023-07-29T18:02:45.078Z,1.92
2023-07-29T18:05:13.154Z,1.48
2023-07-29T18:07:41.070Z,1.50
2023-07-29T18:10:10.664Z,2.08
2023-07-29T18:12:42.838Z,1.70
2023-07-29T18:15:11.718Z,1.67
2023-07-29T18:20:08.777Z,1.60
2023-07-29T18:22:36.696Z,1.60
2023-07-29T18:25:04.719Z,1.60
2023-07-29T18:27:32.786Z,1.50
2023-07-29T18:30:02.021Z,1.55
2023-07-29T18:32:29.993Z,1.58
2023-07-29T18:34:57.926Z,1.45
2023-07-29T18:37:25.814Z,1.65
2023-07-29T18:39:53.681Z,1.60
2023-07-29T18:42:21.936Z,1.80
2023-07-29T18:44:49.875Z,1.40
2023-07-29T18:47:19.083Z,1.35
2023-07-29T18:49:46.965Z,1.75
2023-07-29T18:52:14.929Z,1.38
2023-07-29T18:54:44.858Z,1.58
2023-07-29T18:57:13.232Z,1.65
2023-07-29T18:59:41.135Z,1.52
2023-07-29T19:02:09.274Z,1.80
2023-07-29T19:04:38.551Z,1.45
2023-07-29T19:07:07.174Z,1.40
2023-07-29T19:09:35.020Z,1.40
2023-07-29T19:12:02.911Z,1.42
2023-07-29T19:14:30.798Z,1.50
2023-07-29T19:16:58.737Z,2.63
2023-07-29T19:19:26.717Z,5.18
2023-07-29T19:21:55.920Z,2.53
2023-07-29T19:24:23.900Z,1.75
2023-07-29T19:26:52.465Z,1.67
2023-07-29T19:29:20.272Z,1.55
2023-07-29T19:31:48.192Z,1.63
2023-07-29T19:34:16.068Z,1.88
2023-07-29T19:36:43.951Z,1.70
2023-07-29T19:39:13.170Z,1.52
2023-07-29T19:41:41.075Z,1.70
2023-07-29T19:44:20.532Z,2.13
2023-07-29T19:46:50.834Z,2.13
2023-07-29T19:49:18.847Z,1.67
2023-07-29T19:51:46.704Z,1.60
2023-07-29T19:54:15.916Z,1.90
2023-07-29T19:56:43.788Z,1.75
2023-07-29T19:59:11.733Z,2.05
2023-07-29T20:01:39.854Z,1.83
2023-07-29T20:04:08.095Z,1.60
2023-07-29T20:06:36.029Z,1.50
2023-07-29T20:09:04.034Z,1.90
2023-07-29T20:11:33.303Z,1.80
2023-07-29T20:14:01.181Z,1.50
2023-07-29T20:16:29.937Z,1.60
2023-07-29T20:18:57.854Z,1.67
2023-07-29T20:21:25.731Z,1.75
2023-07-29T20:23:55.484Z,1.75
2023-07-29T20:26:23.457Z,1.95
2023-07-29T20:28:52.691Z,1.90
2023-07-29T20:31:20.637Z,2.17
2023-07-29T20:33:48.563Z,1.80
2023-07-29T20:36:16.458Z,1.75
2023-07-29T20:38:44.313Z,2.00
2023-07-29T20:41:12.162Z,1.92
2023-07-29T20:43:41.768Z,1.95
2023-07-29T20:46:20.904Z,2.00
2023-07-29T20:48:48.921Z,3.00
2023-07-29T20:51:18.616Z,3.17
2023-07-29T20:53:47.060Z,2.72
2023-07-29T20:56:15.971Z,2.17
2023-07-29T20:58:43.965Z,2.30
2023-07-29T21:01:11.992Z,2.05
2023-07-29T21:03:41.263Z,2.00
2023-07-29T21:06:11.858Z,2.00
2023-07-29T21:08:40.051Z,2.10
2023-07-29T21:11:08.409Z,2.17
2023-07-29T21:13:36.245Z,2.17
2023-07-29T21:16:04.144Z,2.40
2023-07-29T21:18:32.021Z,2.00
2023-07-29T21:21:01.263Z,2.20
2023-07-29T21:23:29.388Z,2.17
2023-07-29T21:25:57.249Z,2.50
2023-07-29T21:28:25.169Z,1.92
2023-07-29T21:30:53.063Z,2.10
2023-07-29T21:33:20.961Z,2.38
2023-07-29T21:35:49.583Z,2.63
2023-07-29T21:38:29.293Z,2.45
2023-07-29T21:40:58.085Z,2.60
2023-07-29T21:43:26.167Z,2.65
2023-07-29T21:45:54.298Z,2.97
2023-07-29T21:48:22.168Z,2.22
2023-07-29T21:50:51.255Z,2.38
2023-07-29T21:53:20.923Z,2.40
2023-07-29T21:55:48.970Z,2.70
2023-07-29T21:58:16.930Z,2.00
2023-07-29T22:00:44.801Z,3.10
2023-07-29T22:03:12.712Z,2.65
2023-07-29T22:05:40.644Z,2.75
2023-07-29T22:08:08.513Z,3.05
2023-07-29T22:10:40.929Z,2.60
2023-07-29T22:13:08.834Z,3.10
2023-07-29T22:15:37.622Z,3.00
2023-07-29T22:18:05.827Z,3.13
2023-07-29T22:20:33.841Z,3.83
2023-07-29T22:23:01.703Z,2.50
2023-07-29T22:25:29.615Z,2.85
2023-07-29T22:27:59.073Z,2.45
2023-07-29T22:30:27.004Z,2.38
2023-07-29T22:32:55.054Z,2.45
2023-07-29T22:35:23.072Z,2.33
2023-07-29T22:37:50.956Z,2.58
2023-07-29T22:40:20.360Z,2.30
2023-07-29T22:42:48.233Z,2.42
2023-07-29T22:45:17.534Z,2.88
2023-07-29T22:47:45.345Z,2.63
2023-07-29T22:50:13.279Z,2.00
2023-07-29T22:52:41.131Z,2.33
2023-07-29T22:55:09.665Z,2.10
2023-07-29T22:57:37.538Z,2.47
2023-07-29T23:00:06.517Z,2.45
2023-07-29T23:02:35.815Z,2.30
2023-07-29T23:05:03.766Z,2.50
2023-07-29T23:07:31.710Z,2.33
2023-07-29T23:09:59.571Z,2.30
2023-07-29T23:12:27.448Z,2.13
2023-07-29T23:14:55.399Z,2.10
2023-07-29T23:17:23.353Z,2.25
2023-07-29T23:19:52.862Z,2.20
2023-07-29T23:22:20.738Z,2.13
2023-07-29T23:24:48.621Z,2.20
2023-07-29T23:27:16.476Z,2.03
2023-07-29T23:29:44.365Z,2.60
2023-07-29T23:32:12.284Z,2.00
2023-07-29T23:34:40.372Z,2.90
2023-07-29T23:37:09.623Z,2.25
2023-07-29T23:39:37.477Z,2.28
2023-07-29T23:42:05.978Z,2.13
2023-07-29T23:44:33.929Z,2.58
2023-07-29T23:47:01.818Z,2.10
2023-07-29T23:49:29.721Z,2.28
2023-07-29T23:51:57.596Z,2.00
2023-07-29T23:54:26.901Z,2.10
2023-07-29T23:56:54.811Z,2.10
2023-07-29T23:59:22.623Z,2.30
